sensor_id;sensor_type;location;lat;lon;timestamp;P1;durP1;ratioP1;P2;durP2;ratioP2
63346;SDS011;49472;49.880;8.650;2023-04-06T00:00:45;17.10;;;15.70;;
63346;SDS011;49472;49.880;8.650;2023-04-06T00:03:13;17.67;;;16.17;;
63346;SDS011;49472;49.880;8.650;2023-04-06T00:05:38;18.67;;;17.07;;
63346;SDS011;49472;49.880;8.650;2023-04-06T00:08:03;20.47;;;18.50;;
63346;SDS011;49472;49.880;8.650;2023-04-06T00:10:29;19.73;;;17.87;;
63346;SDS011;49472;49.880;8.650;2023-04-06T00:12:55;18.40;;;16.80;;
63346;SDS011;49472;49.880;8.650;2023-04-06T00:15:22;18.17;;;16.57;;
63346;SDS011;49472;49.880;8.650;2023-04-06T00:17:47;17.30;;;15.80;;
63346;SDS011;49472;49.880;8.650;2023-04-06T00:20:13;17.50;;;15.80;;
63346;SDS011;49472;49.880;8.650;2023-04-06T00:22:38;18.17;;;16.70;;
63346;SDS011;49472;49.880;8.650;2023-04-06T00:25:04;17.47;;;15.20;;
63346;SDS011;49472;49.880;8.650;2023-04-06T00:27:30;19.60;;;17.47;;
63346;SDS011;49472;49.880;8.650;2023-04-06T00:29:55;23.17;;;20.77;;
63346;SDS011;49472;49.880;8.650;2023-04-06T00:32:21;22.23;;;20.03;;
63346;SDS011;49472;49.880;8.650;2023-04-06T00:34:46;19.57;;;17.77;;
63346;SDS011;49472;49.880;8.650;2023-04-06T00:37:11;20.20;;;18.13;;
63346;SDS011;49472;49.880;8.650;2023-04-06T00:39:37;20.00;;;18.20;;
63346;SDS011;49472;49.880;8.650;2023-04-06T00:42:05;17.43;;;15.97;;
63346;SDS011;49472;49.880;8.650;2023-04-06T00:44:35;17.50;;;16.13;;
63346;SDS011;49472;49.880;8.650;2023-04-06T00:47:01;16.80;;;15.50;;
63346;SDS011;49472;49.880;8.650;2023-04-06T00:49:26;18.60;;;16.77;;
63346;SDS011;49472;49.880;8.650;2023-04-06T00:51:52;17.50;;;16.10;;
63346;SDS011;49472;49.880;8.650;2023-04-06T00:54:18;17.53;;;16.07;;
63346;SDS011;49472;49.880;8.650;2023-04-06T00:56:43;17.77;;;16.13;;
63346;SDS011;49472;49.880;8.650;2023-04-06T00:59:09;17.80;;;16.10;;
63346;SDS011;49472;49.880;8.650;2023-04-06T01:01:35;18.40;;;16.63;;
63346;SDS011;49472;49.880;8.650;2023-04-06T01:04:00;17.37;;;16.00;;
63346;SDS011;49472;49.880;8.650;2023-04-06T01:06:27;16.57;;;15.00;;
63346;SDS011;49472;49.880;8.650;2023-04-06T01:08:53;16.57;;;15.07;;
63346;SDS011;49472;49.880;8.650;2023-04-06T01:11:18;17.07;;;15.73;;
63346;SDS011;49472;49.880;8.650;2023-04-06T01:13:44;16.10;;;14.67;;
63346;SDS011;49472;49.880;8.650;2023-04-06T01:16:09;16.83;;;15.07;;
63346;SDS011;49472;49.880;8.650;2023-04-06T01:18:34;17.17;;;15.87;;
63346;SDS011;49472;49.880;8.650;2023-04-06T01:21:01;17.37;;;15.67;;
63346;SDS011;49472;49.880;8.650;2023-04-06T01:23:26;18.83;;;14.83;;
63346;SDS011;49472;49.880;8.650;2023-04-06T01:25:52;16.50;;;15.20;;
63346;SDS011;49472;49.880;8.650;2023-04-06T01:28:17;17.47;;;15.97;;
63346;SDS011;49472;49.880;8.650;2023-04-06T01:30:42;17.13;;;15.40;;
63346;SDS011;49472;49.880;8.650;2023-04-06T01:33:08;16.70;;;15.40;;
63346;SDS011;49472;49.880;8.650;2023-04-06T01:35:33;17.50;;;15.93;;
63346;SDS011;49472;49.880;8.650;2023-04-06T01:37:58;17.00;;;15.50;;
63346;SDS011;49472;49.880;8.650;2023-04-06T01:40:24;16.00;;;14.90;;
63346;SDS011;49472;49.880;8.650;2023-04-06T01:42:49;17.70;;;16.00;;
63346;SDS011;49472;49.880;8.650;2023-04-06T01:45:15;16.87;;;15.57;;
63346;SDS011;49472;49.880;8.650;2023-04-06T01:47:40;17.10;;;15.80;;
63346;SDS011;49472;49.880;8.650;2023-04-06T01:50:06;17.40;;;15.90;;
63346;SDS011;49472;49.880;8.650;2023-04-06T01:52:35;17.47;;;15.97;;
63346;SDS011;49472;49.880;8.650;2023-04-06T01:55:00;16.27;;;14.77;;
63346;SDS011;49472;49.880;8.650;2023-04-06T01:57:25;17.37;;;15.90;;
63346;SDS011;49472;49.880;8.650;2023-04-06T01:59:51;17.00;;;15.43;;
63346;SDS011;49472;49.880;8.650;2023-04-06T02:02:16;17.83;;;16.37;;
63346;SDS011;49472;49.880;8.650;2023-04-06T02:04:42;16.50;;;15.00;;
63346;SDS011;49472;49.880;8.650;2023-04-06T02:07:07;16.33;;;15.13;;
63346;SDS011;49472;49.880;8.650;2023-04-06T02:09:32;16.10;;;14.73;;
63346;SDS011;49472;49.880;8.650;2023-04-06T02:11:58;17.10;;;15.90;;
63346;SDS011;49472;49.880;8.650;2023-04-06T02:14:24;16.33;;;15.03;;
63346;SDS011;49472;49.880;8.650;2023-04-06T02:16:50;16.77;;;15.30;;
63346;SDS011;49472;49.880;8.650;2023-04-06T02:19:16;15.80;;;14.70;;
63346;SDS011;49472;49.880;8.650;2023-04-06T02:21:41;17.80;;;15.90;;
63346;SDS011;49472;49.880;8.650;2023-04-06T02:24:07;17.33;;;15.73;;
63346;SDS011;49472;49.880;8.650;2023-04-06T02:26:32;16.53;;;15.13;;
63346;SDS011;49472;49.880;8.650;2023-04-06T02:28:57;16.97;;;15.57;;
63346;SDS011;49472;49.880;8.650;2023-04-06T02:31:23;16.37;;;15.07;;
63346;SDS011;49472;49.880;8.650;2023-04-06T02:33:48;17.13;;;15.40;;
63346;SDS011;49472;49.880;8.650;2023-04-06T02:36:13;17.50;;;16.10;;
63346;SDS011;49472;49.880;8.650;2023-04-06T02:38:39;17.73;;;16.30;;
63346;SDS011;49472;49.880;8.650;2023-04-06T02:41:05;16.63;;;15.27;;
63346;SDS011;49472;49.880;8.650;2023-04-06T02:43:30;20.40;;;16.87;;
63346;SDS011;49472;49.880;8.650;2023-04-06T02:45:55;17.63;;;16.20;;
63346;SDS011;49472;49.880;8.650;2023-04-06T02:48:20;18.23;;;15.33;;
63346;SDS011;49472;49.880;8.650;2023-04-06T02:50:46;18.10;;;16.50;;
63346;SDS011;49472;49.880;8.650;2023-04-06T02:53:11;16.40;;;14.90;;
63346;SDS011;49472;49.880;8.650;2023-04-06T02:55:36;17.33;;;15.93;;
63346;SDS011;49472;49.880;8.650;2023-04-06T02:58:02;16.23;;;15.10;;
63346;SDS011;49472;49.880;8.650;2023-04-06T03:00:27;16.60;;;15.30;;
63346;SDS011;49472;49.880;8.650;2023-04-06T03:02:52;16.93;;;15.50;;
63346;SDS011;49472;49.880;8.650;2023-04-06T03:05:18;16.63;;;15.43;;
63346;SDS011;49472;49.880;8.650;2023-04-06T03:07:43;16.83;;;15.43;;
63346;SDS011;49472;49.880;8.650;2023-04-06T03:10:08;16.70;;;15.30;;
63346;SDS011;49472;49.880;8.650;2023-04-06T03:12:34;16.10;;;14.90;;
63346;SDS011;49472;49.880;8.650;2023-04-06T03:15:00;17.97;;;15.87;;
63346;SDS011;49472;49.880;8.650;2023-04-06T03:17:25;16.77;;;15.30;;
63346;SDS011;49472;49.880;8.650;2023-04-06T03:19:51;18.93;;;16.37;;
63346;SDS011;49472;49.880;8.650;2023-04-06T03:22:16;16.30;;;15.10;;
63346;SDS011;49472;49.880;8.650;2023-04-06T03:24:41;16.07;;;14.57;;
63346;SDS011;49472;49.880;8.650;2023-04-06T03:27:06;17.37;;;15.87;;
63346;SDS011;49472;49.880;8.650;2023-04-06T03:29:32;16.73;;;15.33;;
63346;SDS011;49472;49.880;8.650;2023-04-06T03:31:57;17.30;;;15.90;;
63346;SDS011;49472;49.880;8.650;2023-04-06T03:34:22;15.73;;;14.47;;
63346;SDS011;49472;49.880;8.650;2023-04-06T03:36:48;19.40;;;15.63;;
63346;SDS011;49472;49.880;8.650;2023-04-06T03:39:13;16.40;;;14.70;;
63346;SDS011;49472;49.880;8.650;2023-04-06T03:41:38;15.67;;;14.47;;
63346;SDS011;49472;49.880;8.650;2023-04-06T03:44:05;17.00;;;15.60;;
63346;SDS011;49472;49.880;8.650;2023-04-06T03:46:30;16.17;;;14.80;;
63346;SDS011;49472;49.880;8.650;2023-04-06T03:48:56;16.90;;;15.60;;
63346;SDS011;49472;49.880;8.650;2023-04-06T03:51:21;17.77;;;16.20;;
63346;SDS011;49472;49.880;8.650;2023-04-06T03:53:47;20.10;;;15.60;;
63346;SDS011;49472;49.880;8.650;2023-04-06T03:56:12;17.70;;;16.10;;
63346;SDS011;49472;49.880;8.650;2023-04-06T03:58:38;19.13;;;15.00;;
63346;SDS011;49472;49.880;8.650;2023-04-06T04:01:03;18.23;;;16.60;;
63346;SDS011;49472;49.880;8.650;2023-04-06T04:03:29;21.43;;;15.80;;
63346;SDS011;49472;49.880;8.650;2023-04-06T04:05:54;16.70;;;15.40;;
63346;SDS011;49472;49.880;8.650;2023-04-06T04:08:23;17.90;;;16.50;;
63346;SDS011;49472;49.880;8.650;2023-04-06T04:10:50;18.57;;;16.80;;
63346;SDS011;49472;49.880;8.650;2023-04-06T04:13:15;18.27;;;16.70;;
63346;SDS011;49472;49.880;8.650;2023-04-06T04:15:40;19.20;;;17.70;;
63346;SDS011;49472;49.880;8.650;2023-04-06T04:18:06;19.00;;;17.40;;
63346;SDS011;49472;49.880;8.650;2023-04-06T04:20:31;18.17;;;16.43;;
63346;SDS011;49472;49.880;8.650;2023-04-06T04:22:56;27.20;;;17.20;;
63346;SDS011;49472;49.880;8.650;2023-04-06T04:25:22;18.00;;;16.50;;
63346;SDS011;49472;49.880;8.650;2023-04-06T04:27:48;19.00;;;17.40;;
63346;SDS011;49472;49.880;8.650;2023-04-06T04:30:14;18.20;;;16.70;;
63346;SDS011;49472;49.880;8.650;2023-04-06T04:32:39;18.60;;;16.90;;
63346;SDS011;49472;49.880;8.650;2023-04-06T04:35:05;29.57;;;18.40;;
63346;SDS011;49472;49.880;8.650;2023-04-06T04:37:30;19.67;;;17.53;;
63346;SDS011;49472;49.880;8.650;2023-04-06T04:39:56;24.37;;;18.60;;
63346;SDS011;49472;49.880;8.650;2023-04-06T04:42:21;18.73;;;16.90;;
63346;SDS011;49472;49.880;8.650;2023-04-06T04:44:47;19.33;;;17.73;;
63346;SDS011;49472;49.880;8.650;2023-04-06T04:47:12;19.63;;;17.80;;
63346;SDS011;49472;49.880;8.650;2023-04-06T04:49:37;18.90;;;17.20;;
63346;SDS011;49472;49.880;8.650;2023-04-06T04:52:03;24.53;;;18.07;;
63346;SDS011;49472;49.880;8.650;2023-04-06T04:54:28;18.47;;;16.87;;
63346;SDS011;49472;49.880;8.650;2023-04-06T04:56:53;17.80;;;16.40;;
63346;SDS011;49472;49.880;8.650;2023-04-06T04:59:19;19.23;;;17.53;;
63346;SDS011;49472;49.880;8.650;2023-04-06T05:01:44;19.00;;;17.07;;
63346;SDS011;49472;49.880;8.650;2023-04-06T05:04:10;19.70;;;17.90;;
63346;SDS011;49472;49.880;8.650;2023-04-06T05:06:35;19.13;;;17.07;;
63346;SDS011;49472;49.880;8.650;2023-04-06T05:09:01;20.17;;;16.50;;
63346;SDS011;49472;49.880;8.650;2023-04-06T05:11:26;17.40;;;16.00;;
63346;SDS011;49472;49.880;8.650;2023-04-06T05:13:53;23.83;;;16.40;;
63346;SDS011;49472;49.880;8.650;2023-04-06T05:16:18;18.27;;;16.70;;
63346;SDS011;49472;49.880;8.650;2023-04-06T05:18:43;22.10;;;17.90;;
63346;SDS011;49472;49.880;8.650;2023-04-06T05:21:10;18.70;;;17.13;;
63346;SDS011;49472;49.880;8.650;2023-04-06T05:23:36;18.80;;;16.97;;
63346;SDS011;49472;49.880;8.650;2023-04-06T05:26:01;19.00;;;16.50;;
63346;SDS011;49472;49.880;8.650;2023-04-06T05:28:27;18.93;;;17.00;;
63346;SDS011;49472;49.880;8.650;2023-04-06T05:30:52;18.30;;;16.33;;
63346;SDS011;49472;49.880;8.650;2023-04-06T05:33:18;18.53;;;16.93;;
63346;SDS011;49472;49.880;8.650;2023-04-06T05:35:43;19.10;;;17.40;;
63346;SDS011;49472;49.880;8.650;2023-04-06T05:38:08;19.27;;;17.43;;
63346;SDS011;49472;49.880;8.650;2023-04-06T05:40:37;20.03;;;18.23;;
63346;SDS011;49472;49.880;8.650;2023-04-06T05:43:03;20.17;;;18.00;;
63346;SDS011;49472;49.880;8.650;2023-04-06T05:45:28;24.70;;;18.73;;
63346;SDS011;49472;49.880;8.650;2023-04-06T05:47:54;19.57;;;17.50;;
63346;SDS011;49472;49.880;8.650;2023-04-06T05:50:19;20.70;;;18.70;;
63346;SDS011;49472;49.880;8.650;2023-04-06T05:52:45;22.90;;;18.57;;
63346;SDS011;49472;49.880;8.650;2023-04-06T05:55:11;24.50;;;18.67;;
63346;SDS011;49472;49.880;8.650;2023-04-06T05:57:37;20.00;;;18.13;;
63346;SDS011;49472;49.880;8.650;2023-04-06T06:00:03;20.30;;;18.50;;
63346;SDS011;49472;49.880;8.650;2023-04-06T06:02:32;20.60;;;18.93;;
63346;SDS011;49472;49.880;8.650;2023-04-06T06:04:57;21.10;;;19.37;;
63346;SDS011;49472;49.880;8.650;2023-04-06T06:07:23;22.63;;;20.33;;
63346;SDS011;49472;49.880;8.650;2023-04-06T06:09:48;24.20;;;21.70;;
63346;SDS011;49472;49.880;8.650;2023-04-06T06:12:14;30.33;;;22.07;;
63346;SDS011;49472;49.880;8.650;2023-04-06T06:14:39;24.40;;;21.73;;
63346;SDS011;49472;49.880;8.650;2023-04-06T06:17:04;33.53;;;24.20;;
63346;SDS011;49472;49.880;8.650;2023-04-06T06:19:30;27.97;;;22.57;;
63346;SDS011;49472;49.880;8.650;2023-04-06T06:21:58;32.13;;;24.33;;
63346;SDS011;49472;49.880;8.650;2023-04-06T06:24:26;24.27;;;22.00;;
63346;SDS011;49472;49.880;8.650;2023-04-06T06:26:51;25.73;;;22.87;;
63346;SDS011;49472;49.880;8.650;2023-04-06T06:29:17;25.93;;;23.33;;
63346;SDS011;49472;49.880;8.650;2023-04-06T06:31:42;24.00;;;21.50;;
63346;SDS011;49472;49.880;8.650;2023-04-06T06:34:08;25.67;;;23.07;;
63346;SDS011;49472;49.880;8.650;2023-04-06T06:36:33;24.57;;;22.10;;
63346;SDS011;49472;49.880;8.650;2023-04-06T06:39:00;25.73;;;23.00;;
63346;SDS011;49472;49.880;8.650;2023-04-06T06:41:25;25.80;;;23.17;;
63346;SDS011;49472;49.880;8.650;2023-04-06T06:43:51;25.60;;;23.20;;
63346;SDS011;49472;49.880;8.650;2023-04-06T06:46:16;25.37;;;22.70;;
63346;SDS011;49472;49.880;8.650;2023-04-06T06:48:42;24.43;;;21.83;;
63346;SDS011;49472;49.880;8.650;2023-04-06T06:51:07;24.07;;;21.77;;
63346;SDS011;49472;49.880;8.650;2023-04-06T06:53:34;27.60;;;23.83;;
63346;SDS011;49472;49.880;8.650;2023-04-06T06:56:00;25.93;;;22.97;;
63346;SDS011;49472;49.880;8.650;2023-04-06T06:58:25;24.80;;;22.50;;
63346;SDS011;49472;49.880;8.650;2023-04-06T07:00:55;26.70;;;22.03;;
63346;SDS011;49472;49.880;8.650;2023-04-06T07:03:22;25.30;;;22.83;;
63346;SDS011;49472;49.880;8.650;2023-04-06T07:05:48;24.87;;;22.40;;
63346;SDS011;49472;49.880;8.650;2023-04-06T07:08:17;26.47;;;23.83;;
63346;SDS011;49472;49.880;8.650;2023-04-06T07:10:43;25.27;;;22.87;;
63346;SDS011;49472;49.880;8.650;2023-04-06T07:13:12;27.37;;;24.37;;
63346;SDS011;49472;49.880;8.650;2023-04-06T07:15:41;25.90;;;23.40;;
63346;SDS011;49472;49.880;8.650;2023-04-06T07:18:07;25.37;;;22.97;;
63346;SDS011;49472;49.880;8.650;2023-04-06T07:20:33;28.63;;;22.80;;
63346;SDS011;49472;49.880;8.650;2023-04-06T07:22:59;24.70;;;22.20;;
63346;SDS011;49472;49.880;8.650;2023-04-06T07:25:24;29.63;;;23.50;;
63346;SDS011;49472;49.880;8.650;2023-04-06T07:27:50;25.43;;;23.03;;
63346;SDS011;49472;49.880;8.650;2023-04-06T07:30:15;24.70;;;22.30;;
63346;SDS011;49472;49.880;8.650;2023-04-06T07:32:40;25.80;;;23.10;;
63346;SDS011;49472;49.880;8.650;2023-04-06T07:35:06;25.33;;;22.70;;
63346;SDS011;49472;49.880;8.650;2023-04-06T07:37:31;27.93;;;25.07;;
63346;SDS011;49472;49.880;8.650;2023-04-06T07:39:57;27.13;;;24.17;;
63346;SDS011;49472;49.880;8.650;2023-04-06T07:42:22;25.50;;;22.87;;
63346;SDS011;49472;49.880;8.650;2023-04-06T07:44:47;29.77;;;24.67;;
63346;SDS011;49472;49.880;8.650;2023-04-06T07:47:13;26.50;;;23.80;;
63346;SDS011;49472;49.880;8.650;2023-04-06T07:49:38;26.17;;;22.23;;
63346;SDS011;49472;49.880;8.650;2023-04-06T07:52:03;27.63;;;22.87;;
63346;SDS011;49472;49.880;8.650;2023-04-06T07:54:29;26.60;;;23.87;;
63346;SDS011;49472;49.880;8.650;2023-04-06T07:56:54;25.70;;;23.20;;
63346;SDS011;49472;49.880;8.650;2023-04-06T07:59:20;26.87;;;23.97;;
63346;SDS011;49472;49.880;8.650;2023-04-06T08:01:45;27.50;;;24.73;;
63346;SDS011;49472;49.880;8.650;2023-04-06T08:04:10;28.03;;;24.43;;
63346;SDS011;49472;49.880;8.650;2023-04-06T08:06:36;27.43;;;24.50;;
63346;SDS011;49472;49.880;8.650;2023-04-06T08:09:01;26.73;;;23.97;;
63346;SDS011;49472;49.880;8.650;2023-04-06T08:11:27;25.80;;;23.23;;
63346;SDS011;49472;49.880;8.650;2023-04-06T08:13:53;25.77;;;23.23;;
63346;SDS011;49472;49.880;8.650;2023-04-06T08:16:19;26.70;;;24.10;;
63346;SDS011;49472;49.880;8.650;2023-04-06T08:18:44;26.47;;;23.87;;
63346;SDS011;49472;49.880;8.650;2023-04-06T08:21:10;28.10;;;25.10;;
63346;SDS011;49472;49.880;8.650;2023-04-06T08:23:35;26.67;;;23.53;;
63346;SDS011;49472;49.880;8.650;2023-04-06T08:26:00;25.30;;;22.90;;
63346;SDS011;49472;49.880;8.650;2023-04-06T08:28:26;26.53;;;23.73;;
63346;SDS011;49472;49.880;8.650;2023-04-06T08:30:51;27.07;;;24.17;;
63346;SDS011;49472;49.880;8.650;2023-04-06T08:33:17;31.03;;;24.57;;
63346;SDS011;49472;49.880;8.650;2023-04-06T08:35:42;26.20;;;23.80;;
63346;SDS011;49472;49.880;8.650;2023-04-06T08:38:07;25.23;;;22.80;;
63346;SDS011;49472;49.880;8.650;2023-04-06T08:40:36;28.70;;;23.50;;
63346;SDS011;49472;49.880;8.650;2023-04-06T08:43:02;24.80;;;22.47;;
63346;SDS011;49472;49.880;8.650;2023-04-06T08:45:33;25.20;;;22.67;;
63346;SDS011;49472;49.880;8.650;2023-04-06T08:47:58;26.77;;;23.70;;
63346;SDS011;49472;49.880;8.650;2023-04-06T08:50:27;25.83;;;23.33;;
63346;SDS011;49472;49.880;8.650;2023-04-06T08:52:54;26.17;;;23.57;;
63346;SDS011;49472;49.880;8.650;2023-04-06T08:55:20;26.50;;;21.60;;
63346;SDS011;49472;49.880;8.650;2023-04-06T08:57:47;23.87;;;21.50;;
63346;SDS011;49472;49.880;8.650;2023-04-06T09:00:13;24.60;;;22.27;;
63346;SDS011;49472;49.880;8.650;2023-04-06T09:02:40;23.87;;;21.60;;
63346;SDS011;49472;49.880;8.650;2023-04-06T09:05:10;25.10;;;22.70;;
63346;SDS011;49472;49.880;8.650;2023-04-06T09:07:36;23.30;;;21.10;;
63346;SDS011;49472;49.880;8.650;2023-04-06T09:10:02;25.17;;;22.53;;
63346;SDS011;49472;49.880;8.650;2023-04-06T09:12:29;24.60;;;22.27;;
63346;SDS011;49472;49.880;8.650;2023-04-06T09:14:56;25.17;;;22.63;;
63346;SDS011;49472;49.880;8.650;2023-04-06T09:17:23;23.80;;;21.70;;
63346;SDS011;49472;49.880;8.650;2023-04-06T09:19:50;25.07;;;21.83;;
63346;SDS011;49472;49.880;8.650;2023-04-06T09:22:16;27.63;;;21.20;;
63346;SDS011;49472;49.880;8.650;2023-04-06T09:27:08;26.40;;;22.17;;
63346;SDS011;49472;49.880;8.650;2023-04-06T09:29:34;26.13;;;23.40;;
63346;SDS011;49472;49.880;8.650;2023-04-06T09:32:02;25.80;;;23.17;;
63346;SDS011;49472;49.880;8.650;2023-04-06T09:34:29;24.07;;;21.67;;
63346;SDS011;49472;49.880;8.650;2023-04-06T09:36:54;30.10;;;23.57;;
63346;SDS011;49472;49.880;8.650;2023-04-06T09:39:21;27.60;;;23.33;;
63346;SDS011;49472;49.880;8.650;2023-04-06T09:41:49;25.77;;;22.47;;
63346;SDS011;49472;49.880;8.650;2023-04-06T09:44:16;24.63;;;22.23;;
63346;SDS011;49472;49.880;8.650;2023-04-06T09:46:42;30.50;;;22.83;;
63346;SDS011;49472;49.880;8.650;2023-04-06T09:49:09;26.17;;;23.33;;
63346;SDS011;49472;49.880;8.650;2023-04-06T09:51:36;29.23;;;22.73;;
63346;SDS011;49472;49.880;8.650;2023-04-06T09:54:04;24.27;;;21.67;;
63346;SDS011;49472;49.880;8.650;2023-04-06T09:56:34;32.77;;;22.43;;
63346;SDS011;49472;49.880;8.650;2023-04-06T10:02:02;28.20;;;23.33;;
63346;SDS011;49472;49.880;8.650;2023-04-06T10:04:38;26.90;;;22.33;;
63346;SDS011;49472;49.880;8.650;2023-04-06T10:07:08;30.37;;;22.27;;
63346;SDS011;49472;49.880;8.650;2023-04-06T10:09:36;30.03;;;22.70;;
63346;SDS011;49472;49.880;8.650;2023-04-06T10:12:05;28.53;;;23.10;;
63346;SDS011;49472;49.880;8.650;2023-04-06T10:14:33;26.53;;;23.60;;
63346;SDS011;49472;49.880;8.650;2023-04-06T10:17:01;28.03;;;24.80;;
63346;SDS011;49472;49.880;8.650;2023-04-06T10:19:28;26.23;;;23.43;;
63346;SDS011;49472;49.880;8.650;2023-04-06T10:22:10;32.70;;;24.60;;
63346;SDS011;49472;49.880;8.650;2023-04-06T10:24:40;26.70;;;23.10;;
63346;SDS011;49472;49.880;8.650;2023-04-06T10:27:06;28.13;;;24.20;;
63346;SDS011;49472;49.880;8.650;2023-04-06T10:29:44;29.57;;;22.40;;
63346;SDS011;49472;49.880;8.650;2023-04-06T10:32:10;25.90;;;23.10;;
63346;SDS011;49472;49.880;8.650;2023-04-06T10:34:36;25.93;;;22.80;;
63346;SDS011;49472;49.880;8.650;2023-04-06T10:37:13;26.13;;;22.57;;
63346;SDS011;49472;49.880;8.650;2023-04-06T10:39:46;26.97;;;23.20;;
63346;SDS011;49472;49.880;8.650;2023-04-06T10:42:12;26.33;;;23.63;;
63346;SDS011;49472;49.880;8.650;2023-04-06T10:44:42;26.63;;;23.83;;
63346;SDS011;49472;49.880;8.650;2023-04-06T10:47:15;28.10;;;23.33;;
63346;SDS011;49472;49.880;8.650;2023-04-06T10:49:43;29.87;;;23.17;;
63346;SDS011;49472;49.880;8.650;2023-04-06T10:52:08;27.23;;;24.33;;
63346;SDS011;49472;49.880;8.650;2023-04-06T10:54:34;34.37;;;25.40;;
63346;SDS011;49472;49.880;8.650;2023-04-06T10:57:08;28.80;;;24.30;;
63346;SDS011;49472;49.880;8.650;2023-04-06T10:59:34;27.47;;;24.57;;
63346;SDS011;49472;49.880;8.650;2023-04-06T11:02:00;26.90;;;24.00;;
63346;SDS011;49472;49.880;8.650;2023-04-06T11:04:25;28.10;;;25.10;;
63346;SDS011;49472;49.880;8.650;2023-04-06T11:06:50;26.13;;;23.33;;
63346;SDS011;49472;49.880;8.650;2023-04-06T11:09:25;27.07;;;24.20;;
63346;SDS011;49472;49.880;8.650;2023-04-06T11:11:56;26.30;;;23.70;;
63346;SDS011;49472;49.880;8.650;2023-04-06T11:14:22;27.10;;;24.17;;
63346;SDS011;49472;49.880;8.650;2023-04-06T11:16:47;28.07;;;25.20;;
63346;SDS011;49472;49.880;8.650;2023-04-06T11:19:15;26.50;;;24.00;;
63346;SDS011;49472;49.880;8.650;2023-04-06T11:21:41;25.07;;;22.50;;
63346;SDS011;49472;49.880;8.650;2023-04-06T11:24:21;25.90;;;23.30;;
63346;SDS011;49472;49.880;8.650;2023-04-06T11:29:17;25.40;;;22.70;;
63346;SDS011;49472;49.880;8.650;2023-04-06T11:31:54;24.57;;;21.90;;
63346;SDS011;49472;49.880;8.650;2023-04-06T11:34:28;26.63;;;23.90;;
63346;SDS011;49472;49.880;8.650;2023-04-06T11:36:55;28.80;;;22.30;;
63346;SDS011;49472;49.880;8.650;2023-04-06T11:39:23;28.33;;;23.50;;
63346;SDS011;49472;49.880;8.650;2023-04-06T11:41:50;25.27;;;22.87;;
63346;SDS011;49472;49.880;8.650;2023-04-06T11:44:28;24.73;;;22.10;;
63346;SDS011;49472;49.880;8.650;2023-04-06T11:46:56;26.70;;;23.90;;
63346;SDS011;49472;49.880;8.650;2023-04-06T11:49:26;26.87;;;24.07;;
63346;SDS011;49472;49.880;8.650;2023-04-06T11:51:55;26.90;;;24.10;;
63346;SDS011;49472;49.880;8.650;2023-04-06T11:56:57;26.00;;;23.37;;
63346;SDS011;49472;49.880;8.650;2023-04-06T11:59:22;26.13;;;23.47;;
63346;SDS011;49472;49.880;8.650;2023-04-06T12:01:47;30.80;;;24.00;;
63346;SDS011;49472;49.880;8.650;2023-04-06T12:04:13;25.50;;;23.07;;
63346;SDS011;49472;49.880;8.650;2023-04-06T12:06:38;25.63;;;23.20;;
63346;SDS011;49472;49.880;8.650;2023-04-06T12:09:03;24.93;;;22.53;;
63346;SDS011;49472;49.880;8.650;2023-04-06T12:11:29;29.13;;;23.83;;
63346;SDS011;49472;49.880;8.650;2023-04-06T12:13:54;25.23;;;22.67;;
63346;SDS011;49472;49.880;8.650;2023-04-06T12:16:20;23.90;;;21.50;;
63346;SDS011;49472;49.880;8.650;2023-04-06T12:18:45;24.03;;;21.83;;
63346;SDS011;49472;49.880;8.650;2023-04-06T12:21:11;24.60;;;21.83;;
63346;SDS011;49472;49.880;8.650;2023-04-06T12:23:36;23.17;;;20.90;;
63346;SDS011;49472;49.880;8.650;2023-04-06T12:26:02;27.53;;;23.27;;
63346;SDS011;49472;49.880;8.650;2023-04-06T12:28:28;26.23;;;22.57;;
63346;SDS011;49472;49.880;8.650;2023-04-06T12:30:54;25.00;;;22.50;;
63346;SDS011;49472;49.880;8.650;2023-04-06T12:33:20;23.73;;;21.60;;
63346;SDS011;49472;49.880;8.650;2023-04-06T12:35:46;24.83;;;22.00;;
63346;SDS011;49472;49.880;8.650;2023-04-06T12:38:11;23.57;;;21.27;;
63346;SDS011;49472;49.880;8.650;2023-04-06T12:40:39;22.67;;;20.47;;
63346;SDS011;49472;49.880;8.650;2023-04-06T12:43:05;22.63;;;20.37;;
63346;SDS011;49472;49.880;8.650;2023-04-06T12:45:31;25.23;;;22.00;;
63346;SDS011;49472;49.880;8.650;2023-04-06T12:47:56;22.47;;;20.30;;
63346;SDS011;49472;49.880;8.650;2023-04-06T12:50:23;22.90;;;20.70;;
63346;SDS011;49472;49.880;8.650;2023-04-06T12:52:48;22.57;;;20.47;;
63346;SDS011;49472;49.880;8.650;2023-04-06T12:55:14;23.13;;;20.93;;
63346;SDS011;49472;49.880;8.650;2023-04-06T12:57:39;25.60;;;20.87;;
63346;SDS011;49472;49.880;8.650;2023-04-06T13:00:05;21.80;;;19.70;;
63346;SDS011;49472;49.880;8.650;2023-04-06T13:02:32;23.10;;;20.50;;
63346;SDS011;49472;49.880;8.650;2023-04-06T13:04:57;23.63;;;21.10;;
63346;SDS011;49472;49.880;8.650;2023-04-06T13:07:23;21.50;;;19.70;;
63346;SDS011;49472;49.880;8.650;2023-04-06T13:09:48;22.67;;;20.37;;
63346;SDS011;49472;49.880;8.650;2023-04-06T13:12:14;22.97;;;20.87;;
63346;SDS011;49472;49.880;8.650;2023-04-06T13:14:40;21.97;;;19.73;;
63346;SDS011;49472;49.880;8.650;2023-04-06T13:17:06;24.13;;;19.43;;
63346;SDS011;49472;49.880;8.650;2023-04-06T13:19:32;23.67;;;21.40;;
63346;SDS011;49472;49.880;8.650;2023-04-06T13:21:57;21.60;;;19.70;;
63346;SDS011;49472;49.880;8.650;2023-04-06T13:24:23;22.00;;;20.00;;
63346;SDS011;49472;49.880;8.650;2023-04-06T13:26:48;23.70;;;20.40;;
63346;SDS011;49472;49.880;8.650;2023-04-06T13:29:14;21.20;;;19.40;;
63346;SDS011;49472;49.880;8.650;2023-04-06T13:31:39;21.87;;;20.07;;
63346;SDS011;49472;49.880;8.650;2023-04-06T13:34:05;21.30;;;19.13;;
63346;SDS011;49472;49.880;8.650;2023-04-06T13:36:31;21.53;;;19.50;;
63346;SDS011;49472;49.880;8.650;2023-04-06T13:38:59;22.27;;;20.00;;
63346;SDS011;49472;49.880;8.650;2023-04-06T13:41:25;22.87;;;20.90;;
63346;SDS011;49472;49.880;8.650;2023-04-06T13:43:51;22.50;;;20.27;;
63346;SDS011;49472;49.880;8.650;2023-04-06T13:46:17;22.77;;;20.67;;
63346;SDS011;49472;49.880;8.650;2023-04-06T13:48:42;23.60;;;21.33;;
63346;SDS011;49472;49.880;8.650;2023-04-06T13:51:11;22.40;;;20.30;;
63346;SDS011;49472;49.880;8.650;2023-04-06T13:53:37;23.40;;;21.27;;
63346;SDS011;49472;49.880;8.650;2023-04-06T13:56:04;21.33;;;19.63;;
63346;SDS011;49472;49.880;8.650;2023-04-06T13:58:29;22.87;;;20.50;;
63346;SDS011;49472;49.880;8.650;2023-04-06T14:01:01;23.77;;;21.10;;
63346;SDS011;49472;49.880;8.650;2023-04-06T14:03:31;23.40;;;21.07;;
63346;SDS011;49472;49.880;8.650;2023-04-06T14:05:56;23.47;;;20.97;;
63346;SDS011;49472;49.880;8.650;2023-04-06T14:08:21;22.63;;;20.47;;
63346;SDS011;49472;49.880;8.650;2023-04-06T14:10:47;23.77;;;21.47;;
63346;SDS011;49472;49.880;8.650;2023-04-06T14:13:12;20.40;;;18.60;;
63346;SDS011;49472;49.880;8.650;2023-04-06T14:15:37;21.20;;;19.30;;
63346;SDS011;49472;49.880;8.650;2023-04-06T14:18:03;20.83;;;18.90;;
63346;SDS011;49472;49.880;8.650;2023-04-06T14:20:30;19.67;;;17.93;;
63346;SDS011;49472;49.880;8.650;2023-04-06T14:22:56;22.70;;;18.93;;
63346;SDS011;49472;49.880;8.650;2023-04-06T14:25:21;23.23;;;21.13;;